Terminal Aerodrome Forecast
Issued by NWS

Home | Current Version | Previous Version | Graphics & Text | Print | Product List | Glossary On
Versions: 1 2 3 4 5 6 7 8 9 10 11 12
750
FTUS43 KTOP 171134
TAFFOE
TAF
KFOE 171134Z 1712/1812 20005KT P6SM SKC WS006/22035KT
     FM171300 21008KT P6SM SKC
     FM171600 21011G20KT P6SM SKC=

USA.gov is the U.S. government's official web portal to all federal, state and local government web resources and services.